createdAt,value
2018-12-05T00:00:02.229Z,783.41
2018-12-05T00:00:06.432Z,783.4
2018-12-05T00:00:10.733Z,783.39
2018-12-05T00:00:15.038Z,783.39
2018-12-05T00:00:19.330Z,783.38
2018-12-05T00:00:23.529Z,783.4
2018-12-05T00:00:27.820Z,783.35
2018-12-05T00:00:32.114Z,783.39
2018-12-05T00:00:36.416Z,783.36
2018-12-05T00:00:40.708Z,783.37
2018-12-05T00:00:45.011Z,783.35
2018-12-05T00:00:49.299Z,783.36
2018-12-05T00:00:53.612Z,783.31
2018-12-05T00:00:57.906Z,783.33
2018-12-05T00:01:02.201Z,783.35
2018-12-05T00:01:06.508Z,783.29
2018-12-05T00:01:10.797Z,783.32
2018-12-05T00:01:15.088Z,783.29
2018-12-05T00:01:19.283Z,783.28
2018-12-05T00:01:23.569Z,783.28
2018-12-05T00:01:27.862Z,783.29
2018-12-05T00:01:32.164Z,783.34
2018-12-05T00:01:36.458Z,783.32
2018-12-05T00:01:40.755Z,783.27
2018-12-05T00:01:45.048Z,783.26
2018-12-05T00:01:49.160Z,783.26
2018-12-05T00:01:53.352Z,783.31
2018-12-05T00:01:57.652Z,783.28
2018-12-05T00:02:01.942Z,783.28
2018-12-05T00:02:06.141Z,783.3
2018-12-05T00:02:10.435Z,783.28
2018-12-05T00:02:14.726Z,783.27
2018-12-05T00:02:18.836Z,783.26
2018-12-05T00:02:23.134Z,783.25
2018-12-05T00:02:27.432Z,783.25
2018-12-05T00:02:31.717Z,783.25
2018-12-05T00:02:35.911Z,783.23
2018-12-05T00:02:40.203Z,783.25
2018-12-05T00:02:44.496Z,783.23
2018-12-05T00:02:48.805Z,783.2
2018-12-05T00:02:53.101Z,783.2
2018-12-05T00:02:57.397Z,783.2
2018-12-05T00:03:01.770Z,783.19
2018-12-05T00:03:06.077Z,783.2
2018-12-05T00:03:10.377Z,783.19
2018-12-05T00:03:14.673Z,783.17
2018-12-05T00:03:18.968Z,783.19
2018-12-05T00:03:23.266Z,783.15
2018-12-05T00:03:27.559Z,783.18
2018-12-05T00:03:31.910Z,783.17
2018-12-05T00:03:36.215Z,783.15
2018-12-05T00:03:40.516Z,783.1
2018-12-05T00:03:44.811Z,783.13
2018-12-05T00:03:49.103Z,783.12
2018-12-05T00:03:53.396Z,783.13
2018-12-05T00:03:57.593Z,783.08
2018-12-05T00:04:01.782Z,783.04
2018-12-05T00:04:06.229Z,783.01
2018-12-05T00:04:10.576Z,783.02
2018-12-05T00:04:14.871Z,783
2018-12-05T00:04:19.163Z,782.99
2018-12-05T00:04:23.456Z,783.05
2018-12-05T00:04:27.752Z,782.99
2018-12-05T00:04:32.058Z,783.02
2018-12-05T00:04:36.346Z,782.99
2018-12-05T00:04:40.686Z,782.97
2018-12-05T00:04:44.975Z,783
2018-12-05T00:04:49.267Z,783.02
2018-12-05T00:04:53.560Z,782.96
2018-12-05T00:04:57.849Z,782.92
2018-12-05T00:05:02.059Z,782.96
2018-12-05T00:05:06.374Z,782.92
2018-12-05T00:05:10.672Z,782.94
2018-12-05T00:05:14.964Z,782.91
2018-12-05T00:05:19.264Z,782.91
2018-12-05T00:05:23.554Z,782.93
2018-12-05T00:05:27.850Z,782.86
2018-12-05T00:05:32.142Z,782.91
2018-12-05T00:05:36.511Z,782.89
2018-12-05T00:05:40.799Z,782.86
2018-12-05T00:05:45.087Z,782.9
2018-12-05T00:05:49.373Z,782.85
2018-12-05T00:05:53.660Z,782.87
2018-12-05T00:05:57.948Z,782.84
2018-12-05T00:06:02.248Z,782.84
2018-12-05T00:06:06.552Z,782.8
2018-12-05T00:06:10.840Z,782.81
2018-12-05T00:06:15.141Z,782.79
2018-12-05T00:06:19.429Z,782.74
2018-12-05T00:06:23.724Z,782.77
2018-12-05T00:06:28.017Z,782.76
2018-12-05T00:06:32.303Z,782.75
2018-12-05T00:06:36.597Z,782.76
2018-12-05T00:06:40.883Z,782.8
2018-12-05T00:06:45.172Z,782.79
2018-12-05T00:06:49.464Z,782.81
2018-12-05T00:06:53.754Z,782.8
2018-12-05T00:06:57.945Z,782.77
2018-12-05T00:07:02.262Z,782.78
2018-12-05T00:07:06.562Z,782.75
2018-12-05T00:07:10.851Z,782.73
2018-12-05T00:07:15.142Z,782.71
2018-12-05T00:07:19.429Z,782.73
2018-12-05T00:07:23.729Z,782.71
2018-12-05T00:07:28.024Z,782.71
2018-12-05T00:07:32.320Z,782.71
2018-12-05T00:07:36.609Z,782.7
2018-12-05T00:07:40.896Z,782.73
2018-12-05T00:07:45.183Z,782.7
2018-12-05T00:07:49.468Z,782.7
2018-12-05T00:07:53.766Z,782.68
2018-12-05T00:07:58.062Z,782.67
2018-12-05T00:08:02.351Z,782.69
2018-12-05T00:08:06.638Z,782.71
2018-12-05T00:08:10.834Z,782.74
2018-12-05T00:08:15.129Z,782.69
2018-12-05T00:08:19.334Z,782.67
2018-12-05T00:08:23.625Z,782.65
2018-12-05T00:08:27.915Z,782.67
2018-12-05T00:08:32.208Z,782.66
2018-12-05T00:08:36.502Z,782.68
2018-12-05T00:08:40.834Z,782.68
2018-12-05T00:08:45.125Z,782.7
2018-12-05T00:08:49.320Z,782.71
2018-12-05T00:08:53.609Z,782.64
2018-12-05T00:08:57.897Z,782.69
2018-12-05T00:09:02.106Z,782.65
2018-12-05T00:09:06.398Z,782.65
2018-12-05T00:09:10.688Z,782.67
2018-12-05T00:09:14.981Z,782.65
2018-12-05T00:09:19.282Z,782.65
2018-12-05T00:09:23.577Z,782.67
2018-12-05T00:09:27.870Z,782.64
2018-12-05T00:09:32.065Z,782.67
2018-12-05T00:09:36.371Z,782.63
2018-12-05T00:09:40.669Z,782.63
2018-12-05T00:09:44.963Z,782.66
2018-12-05T00:09:49.262Z,782.67
2018-12-05T00:09:53.557Z,782.64
2018-12-05T00:09:57.848Z,782.66
2018-12-05T00:10:02.236Z,782.65
2018-12-05T00:10:06.527Z,782.66
2018-12-05T00:10:10.821Z,782.67
2018-12-05T00:10:15.107Z,782.66
2018-12-05T00:10:19.398Z,782.64
2018-12-05T00:10:23.695Z,782.67
2018-12-05T00:10:27.994Z,782.67
2018-12-05T00:10:32.288Z,782.65
2018-12-05T00:10:36.483Z,782.67
2018-12-05T00:10:40.785Z,782.65
2018-12-05T00:10:45.079Z,782.58
2018-12-05T00:10:49.272Z,782.61
2018-12-05T00:10:53.559Z,782.61
2018-12-05T00:10:57.846Z,782.61
2018-12-05T00:11:02.149Z,782.61
2018-12-05T00:11:06.443Z,782.62
2018-12-05T00:11:10.735Z,782.62
2018-12-05T00:11:15.026Z,782.6
2018-12-05T00:11:19.313Z,782.63
2018-12-05T00:11:23.507Z,782.59
2018-12-05T00:11:27.802Z,782.58
2018-12-05T00:11:32.090Z,782.64
2018-12-05T00:11:36.381Z,782.62
2018-12-05T00:11:42.149Z,782.62
2018-12-05T00:11:46.449Z,782.61
2018-12-05T00:11:50.740Z,782.64
2018-12-05T00:11:54.936Z,782.66
2018-12-05T00:11:59.228Z,782.63
2018-12-05T00:12:03.530Z,782.64
2018-12-05T00:12:07.886Z,782.61
2018-12-05T00:12:12.190Z,782.6
2018-12-05T00:12:16.478Z,782.6
2018-12-05T00:12:20.772Z,782.61
2018-12-05T00:12:24.969Z,782.6
2018-12-05T00:12:29.275Z,782.59
2018-12-05T00:12:33.573Z,782.59
2018-12-05T00:12:37.867Z,782.62
2018-12-05T00:12:42.245Z,782.63
2018-12-05T00:12:46.547Z,782.62
2018-12-05T00:12:50.840Z,782.63
2018-12-05T00:12:55.133Z,782.64
2018-12-05T00:12:59.423Z,782.66
2018-12-05T00:13:03.919Z,782.65
2018-12-05T00:13:08.219Z,782.66
2018-12-05T00:13:12.509Z,782.65
2018-12-05T00:13:16.808Z,782.62
2018-12-05T00:13:21.108Z,782.65
2018-12-05T00:13:25.410Z,782.63
2018-12-05T00:13:29.708Z,782.63
2018-12-05T00:13:34.008Z,782.64
2018-12-05T00:13:38.302Z,782.6
2018-12-05T00:13:42.597Z,782.59
2018-12-05T00:13:46.896Z,782.6
2018-12-05T00:13:51.099Z,782.63
2018-12-05T00:13:55.393Z,782.63
2018-12-05T00:13:59.683Z,782.66
2018-12-05T00:14:04.026Z,782.63
2018-12-05T00:14:08.225Z,782.63
2018-12-05T00:14:12.525Z,782.59
2018-12-05T00:14:16.718Z,782.57
2018-12-05T00:14:20.913Z,782.59
2018-12-05T00:14:25.211Z,782.62
2018-12-05T00:14:29.508Z,782.6
2018-12-05T00:14:33.800Z,782.63
2018-12-05T00:14:38.090Z,782.68
2018-12-05T00:14:42.385Z,782.65
2018-12-05T00:14:46.678Z,782.67
2018-12-05T00:14:50.975Z,782.69
2018-12-05T00:14:55.073Z,782.67
2018-12-05T00:14:59.366Z,782.65
2018-12-05T00:15:03.760Z,782.66
2018-12-05T00:15:08.053Z,782.67
2018-12-05T00:15:12.345Z,782.65
2018-12-05T00:15:16.643Z,782.67
2018-12-05T00:15:20.937Z,782.64
2018-12-05T00:15:25.243Z,782.66
2018-12-05T00:15:29.538Z,782.67
2018-12-05T00:15:33.835Z,782.61
2018-12-05T00:15:38.126Z,782.59
2018-12-05T00:15:42.421Z,782.62
2018-12-05T00:15:46.722Z,782.62
2018-12-05T00:15:51.019Z,782.65
2018-12-05T00:15:55.318Z,782.63
2018-12-05T00:15:59.606Z,782.61
2018-12-05T00:16:03.898Z,782.62
2018-12-05T00:16:08.191Z,782.59
2018-12-05T00:16:12.525Z,782.58
2018-12-05T00:16:16.832Z,782.57
2018-12-05T00:16:21.028Z,782.56
2018-12-05T00:16:25.320Z,782.56
2018-12-05T00:16:29.611Z,782.61
2018-12-05T00:16:33.911Z,782.64
2018-12-05T00:16:38.109Z,782.6
2018-12-05T00:16:42.405Z,782.63
2018-12-05T00:16:46.696Z,782.64
2018-12-05T00:16:50.989Z,782.57
2018-12-05T00:16:55.283Z,782.51
2018-12-05T00:16:59.575Z,782.57
2018-12-05T00:17:03.873Z,782.61
2018-12-05T00:17:08.163Z,782.56
2018-12-05T00:17:12.451Z,782.59
2018-12-05T00:17:16.760Z,782.59
2018-12-05T00:17:21.143Z,782.58
2018-12-05T00:17:25.437Z,782.59
2018-12-05T00:17:29.728Z,782.61
2018-12-05T00:17:35.827Z,782.6
2018-12-05T00:17:40.034Z,782.57
2018-12-05T00:17:44.406Z,782.54
2018-12-05T00:17:48.702Z,782.52
2018-12-05T00:17:52.908Z,782.53
2018-12-05T00:17:57.196Z,782.52
2018-12-05T00:18:01.495Z,782.53
2018-12-05T00:18:05.796Z,782.51
2018-12-05T00:18:10.086Z,782.54
2018-12-05T00:18:14.392Z,782.57
2018-12-05T00:18:18.701Z,782.52
2018-12-05T00:18:22.998Z,782.56
2018-12-05T00:18:27.297Z,782.55
2018-12-05T00:18:31.590Z,782.54
2018-12-05T00:18:35.884Z,782.54
2018-12-05T00:18:40.175Z,782.47
2018-12-05T00:18:44.482Z,782.54
2018-12-05T00:18:48.773Z,782.53
2018-12-05T00:18:53.071Z,782.52
2018-12-05T00:18:57.381Z,782.5
2018-12-05T00:19:01.677Z,782.52
2018-12-05T00:19:06.146Z,782.53
2018-12-05T00:19:10.444Z,782.47
2018-12-05T00:19:14.735Z,782.47
2018-12-05T00:19:19.025Z,782.46
2018-12-05T00:19:23.228Z,782.49
2018-12-05T00:19:27.524Z,782.46
2018-12-05T00:19:31.823Z,782.5
2018-12-05T00:19:36.118Z,782.43
2018-12-05T00:19:40.410Z,782.48
2018-12-05T00:19:44.703Z,782.44
2018-12-05T00:19:48.995Z,782.48
2018-12-05T00:19:53.303Z,782.45
2018-12-05T00:19:57.597Z,782.43
2018-12-05T00:20:01.896Z,782.46
2018-12-05T00:20:06.295Z,782.43
2018-12-05T00:20:10.587Z,782.44
2018-12-05T00:20:14.917Z,782.4
2018-12-05T00:20:19.114Z,782.42
2018-12-05T00:20:23.417Z,782.42
2018-12-05T00:20:27.716Z,782.36
2018-12-05T00:20:31.912Z,782.4
2018-12-05T00:20:36.109Z,782.37
2018-12-05T00:20:40.396Z,782.38
2018-12-05T00:20:44.701Z,782.38
2018-12-05T00:20:48.995Z,782.36
2018-12-05T00:20:53.285Z,782.38
2018-12-05T00:20:57.616Z,782.41
2018-12-05T00:21:01.959Z,782.37
2018-12-05T00:21:06.249Z,782.37
2018-12-05T00:21:10.541Z,782.37
2018-12-05T00:21:14.840Z,782.35
2018-12-05T00:21:19.141Z,782.32
2018-12-05T00:21:23.442Z,782.35
2018-12-05T00:21:27.734Z,782.34
2018-12-05T00:21:32.029Z,782.34
2018-12-05T00:21:36.327Z,782.33
2018-12-05T00:21:40.625Z,782.3
2018-12-05T00:21:44.720Z,782.31
2018-12-05T00:21:49.012Z,782.29
2018-12-05T00:21:53.301Z,782.29
2018-12-05T00:21:57.589Z,782.32
2018-12-05T00:22:01.891Z,782.3
2018-12-05T00:22:06.184Z,782.22
2018-12-05T00:22:10.485Z,782.28
2018-12-05T00:22:14.774Z,782.28
2018-12-05T00:22:19.139Z,782.28
2018-12-05T00:22:23.426Z,782.29
2018-12-05T00:22:27.616Z,782.25
2018-12-05T00:22:31.907Z,782.26
2018-12-05T00:22:36.101Z,782.24
2018-12-05T00:22:40.392Z,782.22
2018-12-05T00:22:44.703Z,782.21
2018-12-05T00:22:49.003Z,782.18
2018-12-05T00:22:53.298Z,782.21
2018-12-05T00:22:57.596Z,782.21
2018-12-05T00:23:01.889Z,782.17
2018-12-05T00:23:06.183Z,782.17
2018-12-05T00:23:10.475Z,782.18
2018-12-05T00:23:14.673Z,782.19
2018-12-05T00:23:18.965Z,782.18
2018-12-05T00:23:23.257Z,782.2
2018-12-05T00:23:27.354Z,782.18
2018-12-05T00:23:31.649Z,782.16
2018-12-05T00:23:35.939Z,782.19
2018-12-05T00:23:40.233Z,782.2
2018-12-05T00:23:44.534Z,782.17
2018-12-05T00:23:48.834Z,782.18
2018-12-05T00:23:53.121Z,782.16
2018-12-05T00:23:57.422Z,782.16
2018-12-05T00:24:01.718Z,782.16
2018-12-05T00:24:05.913Z,782.18
2018-12-05T00:24:11.846Z,782.15
2018-12-05T00:24:16.149Z,782.17
2018-12-05T00:24:20.529Z,782.12
2018-12-05T00:24:24.835Z,782.13
2018-12-05T00:24:29.110Z,782.11
2018-12-05T00:24:33.401Z,782.12
2018-12-05T00:24:37.622Z,782.11
2018-12-05T00:24:41.925Z,782.09
2018-12-05T00:24:46.226Z,782.09
2018-12-05T00:24:50.520Z,782.08
2018-12-05T00:24:54.893Z,782.09
2018-12-05T00:24:59.192Z,782.05
2018-12-05T00:25:03.546Z,782.02
2018-12-05T00:25:07.748Z,782.06
2018-12-05T00:25:12.049Z,782.06
2018-12-05T00:25:16.345Z,782.04
2018-12-05T00:25:20.544Z,782.05
2018-12-05T00:25:24.840Z,782.04
2018-12-05T00:25:29.126Z,782.04
2018-12-05T00:25:33.426Z,782.03
2018-12-05T00:25:37.719Z,782.02
2018-12-05T00:25:42.009Z,782.02
2018-12-05T00:25:46.304Z,782.01
2018-12-05T00:25:50.602Z,782.01
2018-12-05T00:25:54.891Z,782.05
2018-12-05T00:25:59.188Z,782.02
2018-12-05T00:26:03.426Z,782.02
2018-12-05T00:26:07.720Z,782.05
2018-12-05T00:26:12.043Z,782.04
2018-12-05T00:26:16.338Z,782
2018-12-05T00:26:20.630Z,781.97
2018-12-05T00:26:24.932Z,781.94
2018-12-05T00:26:29.081Z,781.93
2018-12-05T00:26:33.378Z,781.97
2018-12-05T00:26:37.675Z,781.97
2018-12-05T00:26:41.971Z,781.98
2018-12-05T00:26:46.259Z,781.99
2018-12-05T00:26:50.549Z,781.95
2018-12-05T00:26:54.848Z,781.99
2018-12-05T00:26:59.149Z,781.94
2018-12-05T00:27:03.495Z,781.95
2018-12-05T00:27:07.789Z,781.89
2018-12-05T00:27:12.084Z,781.91
2018-12-05T00:27:16.379Z,781.94
2018-12-05T00:27:20.669Z,781.92
2018-12-05T00:27:24.957Z,781.9
2018-12-05T00:27:29.251Z,781.9
2018-12-05T00:27:33.445Z,781.92
2018-12-05T00:27:37.772Z,781.9
2018-12-05T00:27:42.068Z,781.9
2018-12-05T00:27:46.371Z,781.89
2018-12-05T00:27:50.664Z,781.88
2018-12-05T00:27:54.953Z,781.88
2018-12-05T00:27:59.254Z,781.89
2018-12-05T00:28:03.664Z,781.89
2018-12-05T00:28:07.964Z,781.9
2018-12-05T00:28:12.254Z,781.89
2018-12-05T00:28:16.547Z,781.85
2018-12-05T00:28:20.838Z,781.86
2018-12-05T00:28:25.215Z,781.85
2018-12-05T00:28:29.509Z,781.84
2018-12-05T00:28:33.809Z,781.84
2018-12-05T00:28:38.110Z,781.86
2018-12-05T00:28:42.430Z,781.85
2018-12-05T00:28:46.737Z,781.84
2018-12-05T00:28:51.027Z,781.81
2018-12-05T00:28:55.335Z,781.82
2018-12-05T00:28:59.634Z,781.82
2018-12-05T00:29:03.931Z,781.8
2018-12-05T00:29:08.230Z,781.83
2018-12-05T00:29:12.531Z,781.81
2018-12-05T00:29:16.829Z,781.81
2018-12-05T00:29:21.124Z,781.82
2018-12-05T00:29:25.418Z,781.79
2018-12-05T00:29:29.709Z,781.81
2018-12-05T00:29:34.004Z,781.78
2018-12-05T00:29:38.297Z,781.74
2018-12-05T00:29:42.594Z,781.76
2018-12-05T00:29:46.888Z,781.76
2018-12-05T00:29:51.180Z,781.76
2018-12-05T00:29:55.476Z,781.78
2018-12-05T00:29:59.768Z,781.68
2018-12-05T00:30:04.110Z,781.7
2018-12-05T00:30:08.403Z,781.7
2018-12-05T00:30:12.608Z,781.66
2018-12-05T00:30:16.895Z,781.72
2018-12-05T00:30:21.187Z,781.71
2018-12-05T00:30:25.492Z,781.71
2018-12-05T00:30:29.828Z,781.73
2018-12-05T00:30:34.119Z,781.75
2018-12-05T00:30:38.480Z,781.72
2018-12-05T00:30:42.774Z,781.66
2018-12-05T00:30:47.065Z,781.7
2018-12-05T00:30:51.262Z,781.69
2018-12-05T00:30:55.548Z,781.69
2018-12-05T00:30:59.856Z,781.7
2018-12-05T00:31:04.056Z,781.73
2018-12-05T00:31:08.433Z,781.71
2018-12-05T00:31:12.721Z,781.71
2018-12-05T00:31:17.100Z,781.67
2018-12-05T00:31:21.386Z,781.64
2018-12-05T00:31:25.675Z,781.64
2018-12-05T00:31:29.872Z,781.6
2018-12-05T00:31:34.169Z,781.67
2018-12-05T00:31:38.464Z,781.66
2018-12-05T00:31:42.769Z,781.64
2018-12-05T00:31:47.063Z,781.66
2018-12-05T00:31:51.361Z,781.66
2018-12-05T00:31:55.657Z,781.64
2018-12-05T00:31:59.953Z,781.59
2018-12-05T00:32:04.250Z,781.59
2018-12-05T00:32:08.546Z,781.58
2018-12-05T00:32:12.847Z,781.59
2018-12-05T00:32:17.140Z,781.6
2018-12-05T00:32:21.429Z,781.54
2018-12-05T00:32:25.729Z,781.59
2018-12-05T00:32:29.928Z,781.55
2018-12-05T00:32:34.217Z,781.59
2018-12-05T00:32:38.507Z,781.58
2018-12-05T00:32:42.795Z,781.57
2018-12-05T00:32:47.086Z,781.58
2018-12-05T00:32:51.434Z,781.57
2018-12-05T00:32:55.534Z,781.57
2018-12-05T00:32:59.821Z,781.55
2018-12-05T00:33:04.110Z,781.59
2018-12-05T00:33:08.397Z,781.6
2018-12-05T00:33:12.682Z,781.58
2018-12-05T00:33:17.044Z,781.54
2018-12-05T00:33:21.342Z,781.55
2018-12-05T00:33:25.639Z,781.53
2018-12-05T00:33:29.927Z,781.54
2018-12-05T00:33:34.227Z,781.55
2018-12-05T00:33:38.515Z,781.53
2018-12-05T00:33:42.809Z,781.55
2018-12-05T00:33:47.100Z,781.5
2018-12-05T00:33:51.394Z,781.52
2018-12-05T00:33:55.684Z,781.56
2018-12-05T00:34:00.060Z,781.52
2018-12-05T00:34:04.350Z,781.54
2018-12-05T00:34:08.643Z,781.53
2018-12-05T00:34:12.932Z,781.52
2018-12-05T00:34:17.127Z,781.5
2018-12-05T00:34:21.417Z,781.52
2018-12-05T00:34:25.706Z,781.48
2018-12-05T00:34:29.992Z,781.5
2018-12-05T00:34:34.183Z,781.47
2018-12-05T00:34:38.466Z,781.5
2018-12-05T00:34:42.766Z,781.47
2018-12-05T00:34:47.098Z,781.46
2018-12-05T00:34:51.295Z,781.43
2018-12-05T00:34:55.596Z,781.42
2018-12-05T00:34:59.887Z,781.45
2018-12-05T00:35:04.084Z,781.46
2018-12-05T00:35:08.339Z,781.48
2018-12-05T00:35:12.639Z,781.49
2018-12-05T00:35:16.925Z,781.46
2018-12-05T00:35:21.216Z,781.47
2018-12-05T00:35:25.520Z,781.46
2018-12-05T00:35:29.806Z,781.46
2018-12-05T00:35:34.095Z,781.45
2018-12-05T00:35:38.381Z,781.44
2018-12-05T00:35:42.569Z,781.42
2018-12-05T00:35:46.939Z,781.47
2018-12-05T00:35:51.244Z,781.43
2018-12-05T00:35:55.531Z,781.44
2018-12-05T00:35:59.829Z,781.4
2018-12-05T00:36:04.121Z,781.39
2018-12-05T00:36:08.422Z,781.45
2018-12-05T00:36:12.716Z,781.44
2018-12-05T00:36:17.006Z,781.43
2018-12-05T00:36:21.306Z,781.45
2018-12-05T00:36:25.601Z,781.42
2018-12-05T00:36:29.796Z,781.44
2018-12-05T00:36:33.999Z,781.4
2018-12-05T00:36:38.302Z,781.41
2018-12-05T00:36:42.594Z,781.39
2018-12-05T00:36:46.883Z,781.42
2018-12-05T00:36:51.175Z,781.38
2018-12-05T00:36:55.463Z,781.42
2018-12-05T00:36:59.825Z,781.37
2018-12-05T00:37:04.265Z,781.37
2018-12-05T00:37:08.554Z,781.39
2018-12-05T00:37:12.845Z,781.43
2018-12-05T00:37:17.133Z,781.4
2018-12-05T00:37:21.429Z,781.39
2018-12-05T00:37:25.623Z,781.37
2018-12-05T00:37:29.811Z,781.38
2018-12-05T00:37:34.099Z,781.37
2018-12-05T00:37:38.389Z,781.38
2018-12-05T00:37:42.678Z,781.4
2018-12-05T00:37:46.966Z,781.37
2018-12-05T00:37:51.161Z,781.41
2018-12-05T00:37:55.360Z,781.37
2018-12-05T00:37:59.648Z,781.4
2018-12-05T00:38:04.088Z,781.38
2018-12-05T00:38:08.399Z,781.42
2018-12-05T00:38:12.690Z,781.4
2018-12-05T00:38:16.976Z,781.43
2018-12-05T00:38:21.076Z,781.41
2018-12-05T00:38:25.364Z,781.38
2018-12-05T00:38:29.651Z,781.36
2018-12-05T00:38:33.942Z,781.38
2018-12-05T00:38:38.214Z,781.42
2018-12-05T00:38:42.505Z,781.39
2018-12-05T00:38:46.791Z,781.39
2018-12-05T00:38:51.082Z,781.38
2018-12-05T00:38:55.366Z,781.37
2018-12-05T00:38:59.556Z,781.36
2018-12-05T00:39:03.843Z,781.34
2018-12-05T00:39:08.038Z,781.38
2018-12-05T00:39:12.331Z,781.38
2018-12-05T00:39:16.620Z,781.38
2018-12-05T00:39:20.910Z,781.42
2018-12-05T00:39:25.129Z,781.38
2018-12-05T00:39:29.414Z,781.37
2018-12-05T00:39:33.705Z,781.39
2018-12-05T00:39:37.992Z,781.33
2018-12-05T00:39:42.189Z,781.36
2018-12-05T00:39:48.062Z,781.35
2018-12-05T00:39:52.486Z,781.34
2018-12-05T00:39:56.714Z,781.37
2018-12-05T00:40:00.915Z,781.38
2018-12-05T00:40:05.116Z,781.39
2018-12-05T00:40:09.417Z,781.39
2018-12-05T00:40:13.703Z,781.39
2018-12-05T00:40:17.998Z,781.38
2018-12-05T00:40:22.612Z,781.4
2018-12-05T00:40:26.899Z,781.38
2018-12-05T00:40:31.190Z,781.39
2018-12-05T00:40:35.488Z,781.43
2018-12-05T00:40:39.776Z,781.44
2018-12-05T00:40:44.067Z,781.43
2018-12-05T00:40:48.362Z,781.4
2018-12-05T00:40:52.653Z,781.41
2018-12-05T00:40:56.943Z,781.42
2018-12-05T00:41:01.135Z,781.4
2018-12-05T00:41:05.486Z,781.4
2018-12-05T00:41:09.780Z,781.42
2018-12-05T00:41:14.087Z,781.45
2018-12-05T00:41:18.377Z,781.43
2018-12-05T00:41:22.672Z,781.41
2018-12-05T00:41:26.961Z,781.41
2018-12-05T00:41:31.261Z,781.44
2018-12-05T00:41:35.553Z,781.42
2018-12-05T00:41:39.854Z,781.43
2018-12-05T00:41:44.152Z,781.43
2018-12-05T00:41:48.438Z,781.46
2018-12-05T00:41:52.631Z,781.43
2018-12-05T00:41:56.925Z,781.44
2018-12-05T00:42:01.290Z,781.41
2018-12-05T00:42:05.582Z,781.44
2018-12-05T00:42:09.870Z,781.42
2018-12-05T00:42:14.165Z,781.39
2018-12-05T00:42:18.455Z,781.42
2018-12-05T00:42:22.745Z,781.43
2018-12-05T00:42:27.035Z,781.41
2018-12-05T00:42:31.325Z,781.41
2018-12-05T00:42:35.622Z,781.42
2018-12-05T00:42:39.914Z,781.41
2018-12-05T00:42:44.207Z,781.41
2018-12-05T00:42:48.497Z,781.4
2018-12-05T00:42:52.792Z,781.41
2018-12-05T00:42:57.082Z,781.41
2018-12-05T00:43:01.376Z,781.4
2018-12-05T00:43:05.667Z,781.4
2018-12-05T00:43:09.965Z,781.42
2018-12-05T00:43:14.251Z,781.39
2018-12-05T00:43:18.547Z,781.41
2018-12-05T00:43:22.836Z,781.39
2018-12-05T00:43:27.149Z,781.42
2018-12-05T00:43:31.447Z,781.4
2018-12-05T00:43:35.733Z,781.39
2018-12-05T00:43:40.019Z,781.34
2018-12-05T00:43:44.211Z,781.35
2018-12-05T00:43:48.515Z,781.37
2018-12-05T00:43:52.896Z,781.38
2018-12-05T00:43:57.102Z,781.43
2018-12-05T00:44:01.391Z,781.4
2018-12-05T00:44:05.678Z,781.39
2018-12-05T00:44:09.970Z,781.39
2018-12-05T00:44:14.268Z,781.41
2018-12-05T00:44:18.558Z,781.4
2018-12-05T00:44:22.850Z,781.39
2018-12-05T00:44:27.135Z,781.37
2018-12-05T00:44:31.425Z,781.4
2018-12-05T00:44:35.525Z,781.4
2018-12-05T00:44:39.814Z,781.34
2018-12-05T00:44:44.102Z,781.36
2018-12-05T00:44:48.392Z,781.36
2018-12-05T00:44:52.681Z,781.35
2018-12-05T00:44:56.979Z,781.35
2018-12-05T00:45:01.270Z,781.36
2018-12-05T00:45:05.571Z,781.33
2018-12-05T00:45:09.869Z,781.29
2018-12-05T00:45:14.161Z,781.3
2018-12-05T00:45:18.453Z,781.38
2018-12-05T00:45:22.752Z,781.36
2018-12-05T00:45:27.060Z,781.36
2018-12-05T00:45:31.356Z,781.33
2018-12-05T00:45:35.649Z,781.34
2018-12-05T00:45:39.941Z,781.34
2018-12-05T00:45:44.239Z,781.35
2018-12-05T00:45:48.530Z,781.35
2018-12-05T00:45:52.821Z,781.34
2018-12-05T00:45:57.111Z,781.35
2018-12-05T00:46:01.408Z,781.31
2018-12-05T00:46:05.706Z,781.36
2018-12-05T00:46:10.003Z,781.29
2018-12-05T00:46:14.302Z,781.33
2018-12-05T00:46:18.591Z,781.3
2018-12-05T00:46:22.889Z,781.35
2018-12-05T00:46:27.179Z,781.35
2018-12-05T00:46:31.480Z,781.32
2018-12-05T00:46:35.683Z,781.35
2018-12-05T00:46:39.975Z,781.34
2018-12-05T00:46:44.264Z,781.29
2018-12-05T00:46:48.634Z,781.32
2018-12-05T00:46:52.925Z,781.32
2018-12-05T00:46:57.215Z,781.29
2018-12-05T00:47:01.505Z,781.27
2018-12-05T00:47:05.700Z,781.29
2018-12-05T00:47:09.996Z,781.26
2018-12-05T00:47:14.290Z,781.26
2018-12-05T00:47:18.558Z,781.23
2018-12-05T00:47:22.849Z,781.23
2018-12-05T00:47:27.040Z,781.24
2018-12-05T00:47:31.331Z,781.21
2018-12-05T00:47:35.623Z,781.24
2018-12-05T00:47:39.912Z,781.24
2018-12-05T00:47:44.203Z,781.23
2018-12-05T00:47:48.399Z,781.17
2018-12-05T00:47:52.694Z,781.2
2018-12-05T00:47:57.032Z,781.13
2018-12-05T00:48:01.328Z,781.19
2018-12-05T00:48:05.626Z,781.17
2018-12-05T00:48:09.911Z,781.15
2018-12-05T00:48:14.204Z,781.15
2018-12-05T00:48:18.497Z,781.16
2018-12-05T00:48:22.790Z,781.14
2018-12-05T00:48:27.080Z,781.15
2018-12-05T00:48:31.271Z,781.14
2018-12-05T00:48:35.560Z,781.13
2018-12-05T00:48:39.856Z,781.12
2018-12-05T00:48:44.180Z,781.14
2018-12-05T00:48:48.470Z,781.09
2018-12-05T00:48:52.665Z,781.09
2018-12-05T00:48:56.951Z,781.08
2018-12-05T00:49:01.251Z,781.08
2018-12-05T00:49:05.639Z,781.09
2018-12-05T00:49:09.926Z,781.07
2018-12-05T00:49:14.222Z,781.05
2018-12-05T00:49:18.517Z,781.06
2018-12-05T00:49:22.804Z,781.05
2018-12-05T00:49:27.095Z,781.02
2018-12-05T00:49:31.386Z,780.99
2018-12-05T00:49:35.573Z,781.03
2018-12-05T00:49:39.860Z,780.97
2018-12-05T00:49:44.149Z,781.03
2018-12-05T00:49:48.437Z,781.02
2018-12-05T00:49:52.726Z,781.01
2018-12-05T00:49:57.020Z,781
2018-12-05T00:50:01.315Z,781.01
2018-12-05T00:50:05.603Z,781
2018-12-05T00:50:09.889Z,780.97
2018-12-05T00:50:14.180Z,780.98
2018-12-05T00:50:18.468Z,780.98
2018-12-05T00:50:22.758Z,780.97
2018-12-05T00:50:27.050Z,780.98
2018-12-05T00:50:31.256Z,780.97
2018-12-05T00:50:35.548Z,780.94
2018-12-05T00:50:39.845Z,780.91
2018-12-05T00:50:44.140Z,780.95
2018-12-05T00:50:48.332Z,780.93
2018-12-05T00:50:52.619Z,780.93
2018-12-05T00:50:56.912Z,780.93
2018-12-05T00:51:01.200Z,780.89
2018-12-05T00:51:05.492Z,780.92
2018-12-05T00:51:09.786Z,780.89
2018-12-05T00:51:14.072Z,780.9
2018-12-05T00:51:18.265Z,780.84
2018-12-05T00:51:22.554Z,780.88
2018-12-05T00:51:26.849Z,780.88
2018-12-05T00:51:31.152Z,780.84
2018-12-05T00:51:35.444Z,780.84
2018-12-05T00:51:39.741Z,780.82
2018-12-05T00:51:44.075Z,780.77
2018-12-05T00:51:48.364Z,780.78
2018-12-05T00:51:52.567Z,780.79
2018-12-05T00:51:56.853Z,780.76
2018-12-05T00:52:01.143Z,780.78
2018-12-05T00:52:05.439Z,780.78
2018-12-05T00:52:09.735Z,780.76
2018-12-05T00:52:14.029Z,780.76
2018-12-05T00:52:18.327Z,780.75
2018-12-05T00:52:22.693Z,780.74
2018-12-05T00:52:26.890Z,780.72
2018-12-05T00:52:31.185Z,780.71
2018-12-05T00:52:35.382Z,780.7
2018-12-05T00:52:39.671Z,780.7
2018-12-05T00:52:43.863Z,780.67
2018-12-05T00:52:48.056Z,780.7
2018-12-05T00:52:52.418Z,780.66
2018-12-05T00:52:56.706Z,780.65
2018-12-05T00:53:01.002Z,780.65
2018-12-05T00:53:05.289Z,780.65
2018-12-05T00:53:09.576Z,780.62
2018-12-05T00:53:13.866Z,780.66
2018-12-05T00:53:18.162Z,780.62
2018-12-05T00:53:22.367Z,780.61
2018-12-05T00:53:26.556Z,780.6
2018-12-05T00:53:30.851Z,780.6
2018-12-05T00:53:35.140Z,780.59
2018-12-05T00:53:39.437Z,780.6
2018-12-05T00:53:43.728Z,780.58
2018-12-05T00:53:48.034Z,780.54